GB-0418 weather

Wishangar Farm private Airstrip
Frensham, England, United Kingdom

Public forecast

Using degrees Celsius for public forecast. Weather courtesy of forecast.io.

METAR (pilot weather report)

Closest report is RAF Odiham, 7.1 nm (13.2 km) NW. Retrieved 2018/09/24 08:50 UTC (16 minutes ago):

EGVO 240850Z 32007KT CAVOK 10/06 Q1038 BLU NOSIG

TAF (pilot weather forecast)

Closest forecast is RAF Odiham, 7.1 nm (13.2 km) NW. Retrieved 2018/09/24 09:48 UTC (0 seconds ago):

TAF TAF EGVO 240727Z 2409/2421 30008KT 9999 FEW035